Ashland, WV

6:33 AM EST on January 30, 2015 (GMT -0500)
APRSWXNET Lashmeet WV US | Change Station
CLOSE
Current Station
Personal Weather Station
Location: Lashmeet, WV
Elevation: 2647 ft
Nearby Weather Stations

Elev 2647 ft 37.42 °N, 81.20 °W | Updated 33 minutes ago

Overcast
Overcast
29 °F
Feels Like 23 °F
N
6
Wind Variable Wind from NE
Gusts 12.0 mph

Today
High -- | Low -- °F
--% Chance of Precip.
Yesterday
High -- | Low -- °F
Precip. -- in
7:30 AM 5:47 PM
Waxing Gibbous, 82% visible
Pressure 30.07 in
Visibility 9.0 miles
Clouds Mostly Cloudy 1500 ft
Overcast 2200 ft
Windchill 23 °F
Dew Point 28 °F
Humidity 95%
Rainfall 0.13 in
Snow Depth Not available.
UV 0 out of 12
Pollen .30 out of 12
Air Quality Not available.
Flu Activity Not available.
SPECI KBLF 301128Z AUTO 31010G30KT 9SM -SN BKN015 OVC022 M02/M06 A3007 RMK AO2 PK WND 30030/1119 UPB12E14SNE12B14 P0000 T10221056

More Conditions Fewer Conditions

Pressure 30.07 in
Visibility 9.0 miles
Clouds Mostly Cloudy 1500 ft
Overcast 2200 ft
Windchill 23 °F
Dew Point 28 °F
Humidity 95%
Rainfall 0.13 in
Snow Depth Not available.
UV 0 out of 12
Pollen .30 out of 12
Air Quality Not available.
Flu Activity Not available.
SPECI KBLF 301128Z AUTO 31010G30KT 9SM -SN BKN015 OVC022 M02/M06 A3007 RMK AO2 PK WND 30030/1119 UPB12E14SNE12B14 P0000 T10221056

More Conditions Fewer Conditions

10-Day Weather Forecast

Almanac

Astronomy

Jan. 30, 2015 Rise Set
Actual Time
Civil Twilight
Nautical Twilight
Astronomical Twilight
Moon
Length of Visible Light
Length of Day
Tomorrow will be .
, % of the Moon is Illuminated

Today's Extremes

State Highs State Lows

Community

WunderPhotos

Upload Photos

1,791,737 photos uploaded!

WunderBlogs® & News

Nearby

Air Quality

  Air Quality AQ Index Pollutant
Not available.

Snow Depth

Station Depth Elevation

Earthquake Activity

City Distance Mag. Time & Date
Minimum magnitude displayed is 2.5.

Coastal Water Temperatures

Place Temperature

Nearby Weather Stations